createdAt,value
2018-11-05T00:01:12.932Z,59.75
2018-11-05T00:01:51.919Z,59.75
2018-11-05T00:02:51.906Z,59.75
2018-11-05T00:03:51.911Z,59.75
2018-11-05T00:04:51.895Z,59.75
2018-11-05T00:05:51.883Z,60.23
2018-11-05T00:07:12.883Z,59.45
2018-11-05T00:07:51.864Z,59.55
2018-11-05T00:08:51.855Z,59.45
2018-11-05T00:09:51.844Z,59.55
2018-11-05T00:10:51.844Z,59.36
2018-11-05T00:11:51.826Z,60.13
2018-11-05T00:13:12.823Z,59.94
2018-11-05T00:13:51.810Z,59.17
2018-11-05T00:14:51.801Z,60.32
2018-11-05T00:15:51.794Z,59.55
2018-11-05T00:16:51.790Z,59.75
2018-11-05T00:17:51.777Z,59.65
2018-11-05T00:19:12.772Z,59.75
2018-11-05T00:19:51.755Z,59.75
2018-11-05T00:20:51.748Z,59.65
2018-11-05T00:21:51.737Z,59.65
2018-11-05T00:22:51.727Z,59.65
2018-11-05T00:23:51.719Z,59.45
2018-11-05T00:25:12.719Z,59.45
2018-11-05T00:25:51.700Z,59.36
2018-11-05T00:26:51.693Z,59.27
2018-11-05T00:27:51.687Z,59.45
2018-11-05T00:28:51.682Z,59.45
2018-11-05T00:29:51.664Z,59.45
2018-11-05T00:31:12.659Z,59.36
2018-11-05T00:31:51.650Z,59.65
2018-11-05T00:32:51.640Z,59.55
2018-11-05T00:33:51.628Z,59.45
2018-11-05T00:34:51.620Z,60.42
2018-11-05T00:35:51.609Z,59.55
2018-11-05T00:37:12.613Z,59.27
2018-11-05T00:37:51.593Z,59.55
2018-11-05T00:38:51.583Z,59.27
2018-11-05T00:39:51.581Z,59.55
2018-11-05T00:40:51.566Z,59.45
2018-11-05T00:41:51.556Z,59.65
2018-11-05T00:43:12.553Z,60.13
2018-11-05T00:43:51.542Z,60.13
2018-11-05T00:44:51.533Z,60.13
2018-11-05T00:45:51.630Z,60.03
2018-11-05T00:46:51.524Z,59.65
2018-11-05T00:47:51.502Z,60.13
2018-11-05T00:49:12.502Z,59.94
2018-11-05T00:49:51.488Z,59.55
2018-11-05T00:50:51.474Z,59.55
2018-11-05T00:51:51.464Z,60.61
2018-11-05T00:52:51.457Z,59.65
2018-11-05T00:53:51.446Z,59.84
2018-11-05T00:55:12.446Z,59.65
2018-11-05T00:55:51.430Z,59.55
2018-11-05T00:56:51.425Z,59.55
2018-11-05T00:57:51.412Z,59.45
2018-11-05T00:58:51.407Z,59.75
2018-11-05T00:59:51.392Z,59.75
2018-11-05T01:01:12.390Z,60.03
2018-11-05T01:01:51.382Z,60.13
2018-11-05T01:02:51.374Z,60.03
2018-11-05T01:03:51.404Z,59.94
2018-11-05T01:04:51.351Z,60.03
2018-11-05T01:05:51.345Z,60.13
2018-11-05T01:07:12.338Z,59.55
2018-11-05T01:07:51.341Z,59.55
2018-11-05T01:08:51.313Z,59.65
2018-11-05T01:09:51.303Z,59.84
2018-11-05T01:10:51.295Z,60.03
2018-11-05T01:11:51.284Z,60.13
2018-11-05T01:13:12.282Z,60.13
2018-11-05T01:13:51.268Z,60.03
2018-11-05T01:14:51.256Z,60.32
2018-11-05T01:15:51.253Z,60.13
2018-11-05T01:16:51.245Z,60.13
2018-11-05T01:17:51.241Z,60.13
2018-11-05T01:19:12.234Z,59.55
2018-11-05T01:19:51.217Z,60.13
2018-11-05T01:20:51.212Z,59.55
2018-11-05T01:21:51.193Z,60.13
2018-11-05T01:22:51.186Z,59.55
2018-11-05T01:23:51.184Z,59.65
2018-11-05T01:25:12.180Z,59.94
2018-11-05T01:25:51.181Z,59.84
2018-11-05T01:26:51.152Z,59.55
2018-11-05T01:27:51.139Z,59.65
2018-11-05T01:28:51.129Z,59.55
2018-11-05T01:29:51.130Z,59.55
2018-11-05T01:31:12.119Z,59.55
2018-11-05T01:31:51.112Z,59.65
2018-11-05T01:32:51.094Z,59.84
2018-11-05T01:33:51.100Z,59.84
2018-11-05T01:34:51.078Z,59.55
2018-11-05T01:35:51.074Z,59.84
2018-11-05T01:37:12.100Z,59.55
2018-11-05T01:37:51.060Z,59.55
2018-11-05T01:38:51.045Z,59.55
2018-11-05T01:39:51.031Z,60.32
2018-11-05T01:40:51.027Z,59.84
2018-11-05T01:41:51.010Z,59.36
2018-11-05T01:43:12.006Z,59.65
2018-11-05T01:43:50.997Z,60.13
2018-11-05T01:44:50.994Z,59.45
2018-11-05T01:45:50.975Z,59.55
2018-11-05T01:46:50.974Z,59.94
2018-11-05T01:47:50.959Z,60.13
2018-11-05T01:49:11.957Z,59.84
2018-11-05T01:49:50.944Z,59.75
2018-11-05T01:50:50.929Z,59.36
2018-11-05T01:51:50.919Z,59.84
2018-11-05T01:52:50.914Z,59.84
2018-11-05T01:53:50.911Z,59.75
2018-11-05T01:55:11.902Z,59.36
2018-11-05T01:55:50.882Z,59.75
2018-11-05T01:56:50.877Z,59.84
2018-11-05T01:57:50.868Z,59.84
2018-11-05T01:58:50.854Z,59.75
2018-11-05T01:59:50.852Z,59.75
2018-11-05T02:01:11.847Z,60.03
2018-11-05T02:01:50.842Z,59.45
2018-11-05T02:02:50.828Z,60.13
2018-11-05T02:03:50.808Z,60.03
2018-11-05T02:04:50.800Z,60.23
2018-11-05T02:05:50.794Z,59.75
2018-11-05T02:07:11.789Z,59.55
2018-11-05T02:07:50.776Z,60.13
2018-11-05T02:08:50.768Z,59.94
2018-11-05T02:09:50.764Z,59.65
2018-11-05T02:10:50.752Z,59.55
2018-11-05T02:11:50.747Z,59.65
2018-11-05T02:13:11.796Z,59.45
2018-11-05T02:13:50.719Z,59.94
2018-11-05T02:14:50.710Z,59.65
2018-11-05T02:15:50.735Z,59.65
2018-11-05T02:16:50.698Z,59.65
2018-11-05T02:17:50.686Z,59.65
2018-11-05T02:19:11.680Z,59.65
2018-11-05T02:19:50.670Z,59.84
2018-11-05T02:20:50.657Z,59.65
2018-11-05T02:21:50.645Z,59.84
2018-11-05T02:22:50.639Z,59.55
2018-11-05T02:23:50.626Z,59.45
2018-11-05T02:25:11.625Z,59.84
2018-11-05T02:25:50.612Z,59.45
2018-11-05T02:26:50.602Z,59.55
2018-11-05T02:27:50.608Z,59.55
2018-11-05T02:28:50.583Z,59.52
2018-11-05T02:29:50.576Z,59.65
2018-11-05T02:31:11.573Z,59.65
2018-11-05T02:31:50.573Z,59.55
2018-11-05T02:32:50.547Z,59.94
2018-11-05T02:33:50.535Z,59.94
2018-11-05T02:34:50.533Z,59.65
2018-11-05T02:35:50.533Z,59.55
2018-11-05T02:37:11.518Z,59.65
2018-11-05T02:37:50.504Z,59.55
2018-11-05T02:38:50.492Z,59.65
2018-11-05T02:39:50.490Z,59.65
2018-11-05T02:40:50.478Z,59.65
2018-11-05T02:41:50.474Z,59.75
2018-11-05T02:43:11.477Z,59.36
2018-11-05T02:43:50.445Z,59.75
2018-11-05T02:44:50.438Z,59.45
2018-11-05T02:45:50.428Z,59.75
2018-11-05T02:46:50.420Z,59.84
2018-11-05T02:47:50.412Z,59.62
2018-11-05T02:49:11.407Z,59.52
2018-11-05T02:49:50.393Z,59.72
2018-11-05T02:50:50.385Z,59.33
2018-11-05T02:51:50.373Z,59.72
2018-11-05T02:52:50.364Z,59.62
2018-11-05T02:53:50.354Z,59.52
2018-11-05T02:55:11.352Z,59.72
2018-11-05T02:55:50.345Z,59.81
2018-11-05T02:56:50.327Z,59.52
2018-11-05T02:57:50.322Z,59.33
2018-11-05T02:58:50.309Z,59.43
2018-11-05T02:59:50.304Z,59.81
2018-11-05T03:01:11.297Z,59.62
2018-11-05T03:01:50.285Z,59.52
2018-11-05T03:02:50.272Z,59.55
2018-11-05T03:03:50.263Z,59.62
2018-11-05T03:04:50.257Z,59.62
2018-11-05T03:05:50.245Z,59.62
2018-11-05T03:07:11.245Z,59.55
2018-11-05T03:07:50.228Z,59.62
2018-11-05T03:08:50.221Z,59.72
2018-11-05T03:09:50.207Z,59.91
2018-11-05T03:10:50.202Z,59.72
2018-11-05T03:11:50.190Z,59.65
2018-11-05T03:13:11.191Z,59.62
2018-11-05T03:13:50.170Z,59.72
2018-11-05T03:14:50.165Z,59.62
2018-11-05T03:15:50.154Z,59.81
2018-11-05T03:16:50.145Z,59.81
2018-11-05T03:17:50.135Z,59.72
2018-11-05T03:19:11.134Z,59.33
2018-11-05T03:19:50.123Z,59.52
2018-11-05T03:20:50.114Z,59.72
2018-11-05T03:21:50.097Z,59.72
2018-11-05T03:22:50.090Z,59.62
2018-11-05T03:23:50.092Z,59.81
2018-11-05T03:25:11.085Z,59.62
2018-11-05T03:25:50.075Z,59.52
2018-11-05T03:26:50.062Z,59.33
2018-11-05T03:27:50.044Z,59.81
2018-11-05T03:28:50.040Z,59.52
2018-11-05T03:29:50.032Z,59.72
2018-11-05T03:31:11.025Z,59.33
2018-11-05T03:31:50.008Z,59.84
2018-11-05T03:32:50.000Z,59.62
2018-11-05T03:33:49.990Z,59.62
2018-11-05T03:34:49.982Z,59.33
2018-11-05T03:35:50.046Z,59.81
2018-11-05T03:37:10.967Z,59.62
2018-11-05T03:37:49.952Z,59.72
2018-11-05T03:38:49.950Z,59.72
2018-11-05T03:39:49.948Z,59.62
2018-11-05T03:40:49.927Z,59.52
2018-11-05T03:41:49.916Z,59.62
2018-11-05T03:43:10.909Z,59.52
2018-11-05T03:43:49.897Z,59.62
2018-11-05T03:44:49.893Z,59.72
2018-11-05T03:45:49.882Z,59.43
2018-11-05T03:46:49.873Z,59.52
2018-11-05T03:47:49.864Z,59.72
2018-11-05T03:49:10.862Z,59.81
2018-11-05T03:49:49.850Z,59.62
2018-11-05T03:50:49.832Z,59.62
2018-11-05T03:51:49.830Z,59.75
2018-11-05T03:52:49.820Z,59.52
2018-11-05T03:53:49.809Z,59.43
2018-11-05T03:55:10.800Z,59.33
2018-11-05T03:55:49.818Z,59.33
2018-11-05T03:56:49.988Z,59.14
2018-11-05T03:57:49.774Z,59.43
2018-11-05T03:58:49.762Z,59.75
2018-11-05T03:59:49.750Z,59.52
2018-11-05T04:01:10.746Z,59.94
2018-11-05T04:01:49.730Z,59.81
2018-11-05T04:02:49.723Z,59.84
2018-11-05T04:03:49.711Z,59.75
2018-11-05T04:04:49.705Z,59.75
2018-11-05T04:05:49.702Z,59.91
2018-11-05T04:07:10.693Z,59.84
2018-11-05T04:07:49.683Z,59.94
2018-11-05T04:08:49.677Z,60.03
2018-11-05T04:09:49.660Z,59.75
2018-11-05T04:10:49.654Z,59.84
2018-11-05T04:11:49.637Z,59.84
2018-11-05T04:13:10.640Z,59.84
2018-11-05T04:13:49.620Z,59.84
2018-11-05T04:14:49.615Z,59.75
2018-11-05T04:15:49.634Z,59.75
2018-11-05T04:16:49.618Z,59.75
2018-11-05T04:17:49.600Z,59.75
2018-11-05T04:19:10.586Z,59.75
2018-11-05T04:19:49.566Z,59.75
2018-11-05T04:20:49.557Z,59.65
2018-11-05T04:21:49.550Z,59.75
2018-11-05T04:22:49.538Z,59.75
2018-11-05T04:23:49.545Z,59.17
2018-11-05T04:25:10.539Z,59.75
2018-11-05T04:25:49.511Z,59.84
2018-11-05T04:26:49.510Z,59.84
2018-11-05T04:27:49.553Z,59.75
2018-11-05T04:28:49.484Z,59.75
2018-11-05T04:29:49.485Z,59.84
2018-11-05T04:31:10.471Z,59.75
2018-11-05T04:31:49.456Z,59.75
2018-11-05T04:32:49.454Z,59.84
2018-11-05T04:33:49.439Z,59.94
2018-11-05T04:34:49.448Z,59.75
2018-11-05T04:35:49.437Z,59.75
2018-11-05T04:37:10.430Z,59.75
2018-11-05T04:37:49.404Z,59.65
2018-11-05T04:38:49.393Z,59.65
2018-11-05T04:39:49.385Z,59.55
2018-11-05T04:40:49.383Z,59.65
2018-11-05T04:41:49.373Z,59.94
2018-11-05T04:43:10.364Z,59.65
2018-11-05T04:43:49.362Z,59.36
2018-11-05T04:44:49.337Z,59.45
2018-11-05T04:45:49.340Z,59.45
2018-11-05T04:46:49.322Z,59.36
2018-11-05T04:47:49.325Z,59.45
2018-11-05T04:49:10.310Z,59.36
2018-11-05T04:49:49.311Z,59.55
2018-11-05T04:50:49.288Z,59.36
2018-11-05T04:51:49.277Z,59.45
2018-11-05T04:52:49.267Z,59.62
2018-11-05T04:53:49.267Z,59.69
2018-11-05T04:55:10.270Z,59.40
2018-11-05T04:55:49.244Z,59.49
2018-11-05T04:56:49.235Z,59.66
2018-11-05T04:57:49.233Z,59.75
2018-11-05T04:58:49.212Z,59.82
2018-11-05T04:59:49.204Z,59.92
2018-11-05T05:01:10.200Z,59.92
2018-11-05T05:01:49.189Z,59.82
2018-11-05T05:02:49.178Z,59.92
2018-11-05T05:03:49.168Z,59.82
2018-11-05T05:04:49.162Z,59.44
2018-11-05T05:05:49.147Z,59.66
2018-11-05T05:07:10.155Z,59.47
2018-11-05T05:07:49.134Z,58.98
2018-11-05T05:08:49.131Z,58.89
2018-11-05T05:09:49.110Z,59.08
2018-11-05T05:10:49.099Z,58.89
2018-11-05T05:11:49.090Z,58.72
2018-11-05T05:13:10.089Z,58.24
2018-11-05T05:13:49.068Z,58.24
2018-11-05T05:14:49.063Z,58.34
2018-11-05T05:15:49.057Z,58.24
2018-11-05T05:16:49.046Z,58.63
2018-11-05T05:17:49.033Z,58.05
2018-11-05T05:19:10.027Z,58.05
2018-11-05T05:19:49.012Z,58.05
2018-11-05T05:20:49.005Z,58.08
2018-11-05T05:21:48.992Z,58.34
2018-11-05T05:22:49.186Z,58.27
2018-11-05T05:23:48.981Z,58.17
2018-11-05T05:25:09.984Z,57.69
2018-11-05T05:25:48.962Z,57.69
2018-11-05T05:26:48.947Z,57.69
2018-11-05T05:27:48.941Z,57.69
2018-11-05T05:28:48.936Z,57.60
2018-11-05T05:29:48.918Z,57.60
2018-11-05T05:31:09.914Z,57.89
2018-11-05T05:31:48.900Z,57.69
2018-11-05T05:32:48.928Z,57.69
2018-11-05T05:33:48.887Z,57.69
2018-11-05T05:34:48.872Z,57.69
2018-11-05T05:35:48.867Z,57.69
2018-11-05T05:37:09.870Z,57.69
2018-11-05T05:37:48.843Z,57.69
2018-11-05T05:38:48.839Z,57.72
2018-11-05T05:39:48.837Z,57.69
2018-11-05T05:40:48.858Z,57.69
2018-11-05T05:41:48.809Z,57.69
2018-11-05T05:43:09.807Z,57.79
2018-11-05T05:43:48.790Z,57.92
2018-11-05T05:44:48.784Z,57.72
2018-11-05T05:45:48.776Z,57.50
2018-11-05T05:46:48.761Z,57.72
2018-11-05T05:47:48.754Z,57.69
2018-11-05T05:49:09.754Z,57.72
2018-11-05T05:49:48.739Z,57.53
2018-11-05T05:50:48.725Z,57.72
2018-11-05T05:51:48.716Z,57.72
2018-11-05T05:52:48.707Z,57.72
2018-11-05T05:53:48.697Z,57.62
2018-11-05T05:55:09.693Z,57.53
2018-11-05T05:55:48.685Z,57.62
2018-11-05T05:56:48.669Z,57.72
2018-11-05T05:57:48.671Z,57.62
2018-11-05T05:58:48.650Z,57.53
2018-11-05T05:59:48.660Z,58.30
2018-11-05T06:01:09.659Z,57.62
2018-11-05T06:01:48.630Z,57.62
2018-11-05T06:02:48.615Z,57.53
2018-11-05T06:03:48.614Z,57.92
2018-11-05T06:04:48.596Z,58.01
2018-11-05T06:05:48.626Z,58.11
2018-11-05T06:07:09.584Z,58.20
2018-11-05T06:07:48.570Z,58.20
2018-11-05T06:08:48.565Z,58.30
2018-11-05T06:09:48.551Z,58.20
2018-11-05T06:10:48.555Z,58.30
2018-11-05T06:11:48.531Z,58.11
2018-11-05T06:13:09.537Z,58.20
2018-11-05T06:13:48.514Z,58.20
2018-11-05T06:14:48.506Z,57.92
2018-11-05T06:15:48.563Z,58.01
2018-11-05T06:16:48.491Z,58.11
2018-11-05T06:17:48.487Z,58.11
2018-11-05T06:19:09.478Z,58.20
2018-11-05T06:19:48.469Z,58.20
2018-11-05T06:20:48.450Z,58.20
2018-11-05T06:21:48.465Z,58.11
2018-11-05T06:22:48.448Z,58.11
2018-11-05T06:23:48.425Z,58.01
2018-11-05T06:25:09.419Z,57.92
2018-11-05T06:25:48.404Z,58.01
2018-11-05T06:26:48.397Z,58.11
2018-11-05T06:27:48.388Z,58.11
2018-11-05T06:28:48.379Z,58.01
2018-11-05T06:29:48.372Z,58.01
2018-11-05T06:31:09.368Z,58.20
2018-11-05T06:31:48.356Z,58.40
2018-11-05T06:32:48.348Z,58.01
2018-11-05T06:33:48.332Z,58.01
2018-11-05T06:34:48.322Z,58.01
2018-11-05T06:35:48.318Z,58.40
2018-11-05T06:37:09.310Z,58.11
2018-11-05T06:37:48.299Z,58.40
2018-11-05T06:38:48.287Z,58.01
2018-11-05T06:39:48.284Z,58.11
2018-11-05T06:40:48.280Z,58.30
2018-11-05T06:41:48.299Z,58.01
2018-11-05T06:43:09.252Z,58.01
2018-11-05T06:43:48.248Z,58.20
2018-11-05T06:44:48.251Z,58.01
2018-11-05T06:45:48.222Z,58.20
2018-11-05T06:46:48.215Z,58.20
2018-11-05T06:47:48.205Z,58.01
2018-11-05T06:49:09.200Z,58.01
2018-11-05T06:49:48.199Z,58.30
2018-11-05T06:50:48.180Z,58.01
2018-11-05T06:51:48.170Z,58.30
2018-11-05T06:52:48.188Z,58.01
2018-11-05T06:53:48.155Z,58.30
2018-11-05T06:55:09.146Z,58.30
2018-11-05T06:55:48.133Z,58.01
2018-11-05T06:56:48.178Z,58.30
2018-11-05T06:57:48.246Z,58.30
2018-11-05T06:58:48.103Z,58.30
2018-11-05T06:59:48.094Z,58.59
2018-11-05T07:01:09.094Z,58.20
2018-11-05T07:01:48.076Z,58.59
2018-11-05T07:02:48.065Z,58.30
2018-11-05T07:03:48.058Z,58.59
2018-11-05T07:04:48.058Z,58.69
2018-11-05T07:05:48.100Z,58.59
2018-11-05T07:07:09.036Z,58.69
2018-11-05T07:07:48.021Z,58.59
2018-11-05T07:08:48.013Z,58.49
2018-11-05T07:09:48.065Z,58.59
2018-11-05T07:10:47.994Z,58.59
2018-11-05T07:11:47.987Z,58.59
2018-11-05T07:13:08.991Z,58.30
2018-11-05T07:13:47.974Z,58.40
2018-11-05T07:14:47.958Z,58.49
2018-11-05T07:15:47.947Z,58.40
2018-11-05T07:16:47.940Z,58.30
2018-11-05T07:17:47.929Z,58.30
2018-11-05T07:19:09.255Z,58.30
2018-11-05T07:19:47.913Z,58.40
2018-11-05T07:20:47.906Z,58.40
2018-11-05T07:21:47.899Z,58.40
2018-11-05T07:22:47.885Z,58.30
2018-11-05T07:23:47.882Z,58.40
2018-11-05T07:25:08.876Z,58.40
2018-11-05T07:25:47.863Z,58.49
2018-11-05T07:26:47.847Z,58.49
2018-11-05T07:27:47.881Z,58.30
2018-11-05T07:28:47.831Z,58.30
2018-11-05T07:29:47.817Z,58.59
2018-11-05T07:31:08.816Z,58.59
2018-11-05T07:31:47.802Z,58.30
2018-11-05T07:32:47.799Z,58.30
2018-11-05T07:33:47.968Z,58.30
2018-11-05T07:34:47.785Z,58.20
2018-11-05T07:35:47.768Z,58.49
2018-11-05T07:37:08.760Z,58.49
2018-11-05T07:37:47.748Z,58.49
2018-11-05T07:38:47.738Z,58.69
2018-11-05T07:39:47.731Z,58.40
2018-11-05T07:40:47.720Z,58.40
2018-11-05T07:41:47.712Z,58.40
2018-11-05T07:43:08.718Z,58.30
2018-11-05T07:43:47.700Z,58.20
2018-11-05T07:44:47.689Z,58.30
2018-11-05T07:45:47.682Z,58.40
2018-11-05T07:46:47.677Z,58.40
2018-11-05T07:47:47.667Z,58.30
2018-11-05T07:49:08.659Z,58.40
2018-11-05T07:49:47.640Z,58.20
2018-11-05T07:50:47.675Z,58.30
2018-11-05T07:51:47.623Z,58.40
2018-11-05T07:52:47.617Z,58.40
2018-11-05T07:53:47.621Z,58.30
2018-11-05T07:55:08.599Z,58.20
2018-11-05T07:55:47.585Z,58.30
2018-11-05T07:56:47.672Z,58.20
2018-11-05T07:57:47.568Z,58.20
2018-11-05T07:58:47.568Z,58.49
2018-11-05T07:59:47.546Z,58.20
2018-11-05T08:01:08.544Z,58.40
2018-11-05T08:01:47.531Z,58.20
2018-11-05T08:02:47.632Z,58.30
2018-11-05T08:03:47.515Z,58.20
2018-11-05T08:04:47.509Z,58.40
2018-11-05T08:05:47.498Z,58.30
2018-11-05T08:07:08.496Z,58.20
2018-11-05T08:07:47.475Z,58.40
2018-11-05T08:08:47.471Z,58.40
2018-11-05T08:09:47.455Z,58.30
2018-11-05T08:10:47.448Z,58.40
2018-11-05T08:11:47.439Z,58.20
2018-11-05T08:13:08.438Z,58.40
2018-11-05T08:13:47.421Z,58.30
2018-11-05T08:14:47.412Z,58.40
2018-11-05T08:15:47.408Z,58.40
2018-11-05T08:16:47.399Z,58.20
2018-11-05T08:17:47.390Z,58.40
2018-11-05T08:19:08.383Z,58.40
2018-11-05T08:19:47.371Z,58.40
2018-11-05T08:20:47.374Z,58.40
2018-11-05T08:21:47.349Z,58.20
2018-11-05T08:22:47.339Z,58.40
2018-11-05T08:23:47.331Z,58.40
2018-11-05T08:25:08.329Z,58.40
2018-11-05T08:25:47.309Z,58.49
2018-11-05T08:26:47.302Z,58.30
2018-11-05T08:27:47.295Z,58.49
2018-11-05T08:28:47.290Z,58.30
2018-11-05T08:29:47.279Z,58.30
2018-11-05T08:31:08.271Z,58.40
2018-11-05T08:31:47.260Z,58.30
2018-11-05T08:32:47.248Z,58.11
2018-11-05T08:33:47.238Z,58.30
2018-11-05T08:34:47.229Z,58.11
2018-11-05T08:35:47.221Z,58.20
2018-11-05T08:37:08.226Z,58.30
2018-11-05T08:37:47.203Z,58.49
2018-11-05T08:38:47.199Z,58.20
2018-11-05T08:39:47.183Z,58.30
2018-11-05T08:40:47.182Z,58.20
2018-11-05T08:41:47.166Z,58.20
2018-11-05T08:43:08.168Z,58.30
2018-11-05T08:43:47.148Z,58.30
2018-11-05T08:44:47.139Z,58.11
2018-11-05T08:45:47.131Z,58.20
2018-11-05T08:46:47.161Z,58.30
2018-11-05T08:47:47.120Z,58.20
2018-11-05T08:49:08.110Z,58.40
2018-11-05T08:49:47.100Z,58.20
2018-11-05T08:50:47.159Z,58.30
2018-11-05T08:51:47.563Z,58.30
2018-11-05T08:52:47.066Z,58.01
2018-11-05T08:53:47.057Z,58.11
2018-11-05T08:55:08.053Z,58.01
2018-11-05T08:55:47.040Z,58.11
2018-11-05T08:56:47.084Z,58.40
2018-11-05T08:57:47.111Z,58.20
2018-11-05T08:58:47.010Z,58.40
2018-11-05T08:59:47.003Z,58.20
2018-11-05T09:01:08.026Z,58.11
2018-11-05T09:01:46.984Z,58.11
2018-11-05T09:02:46.982Z,58.30
2018-11-05T09:03:46.979Z,58.11
2018-11-05T09:04:47.056Z,58.20
2018-11-05T09:05:46.948Z,58.30
2018-11-05T09:07:07.944Z,58.20
2018-11-05T09:07:46.947Z,58.30
2018-11-05T09:08:46.925Z,58.40
2018-11-05T09:09:47.012Z,58.40
2018-11-05T09:10:47.233Z,58.40
2018-11-05T09:11:47.034Z,58.30
2018-11-05T09:13:07.897Z,58.30
2018-11-05T09:13:46.882Z,58.30
2018-11-05T09:14:46.866Z,58.30
2018-11-05T09:15:46.860Z,58.40
2018-11-05T09:16:46.851Z,58.40
2018-11-05T09:17:46.839Z,58.20
2018-11-05T09:19:07.834Z,58.30
2018-11-05T09:19:46.823Z,58.20
2018-11-05T09:20:46.845Z,58.20
2018-11-05T09:21:46.806Z,58.30
2018-11-05T09:22:46.791Z,58.20
2018-11-05T09:23:46.789Z,58.30
2018-11-05T09:25:07.778Z,58.30
2018-11-05T09:25:46.769Z,58.30
2018-11-05T09:26:46.757Z,58.40
2018-11-05T09:27:46.758Z,58.20
2018-11-05T09:28:46.743Z,58.30
2018-11-05T09:29:46.734Z,58.30
2018-11-05T09:31:07.726Z,58.40
2018-11-05T09:31:46.714Z,58.30
2018-11-05T09:32:46.710Z,58.40
2018-11-05T09:33:46.697Z,58.20
2018-11-05T09:34:46.696Z,58.20
2018-11-05T09:35:46.679Z,58.40
2018-11-05T09:37:07.685Z,58.30
2018-11-05T09:37:46.664Z,58.40
2018-11-05T09:38:46.651Z,58.30
2018-11-05T09:39:46.641Z,58.30
2018-11-05T09:40:46.635Z,58.01
2018-11-05T09:41:46.627Z,58.30
2018-11-05T09:43:07.620Z,58.20
2018-11-05T09:43:46.604Z,58.20
2018-11-05T09:44:46.594Z,58.20
2018-11-05T09:45:46.591Z,58.30
2018-11-05T09:46:46.575Z,58.30
2018-11-05T09:47:46.566Z,58.30
2018-11-05T09:49:07.566Z,58.01
2018-11-05T09:49:46.548Z,58.20
2018-11-05T09:50:46.590Z,58.30
2018-11-05T09:51:46.531Z,58.30
2018-11-05T09:52:46.519Z,58.30
2018-11-05T09:53:46.517Z,58.30
2018-11-05T09:55:07.516Z,58.30
2018-11-05T09:55:46.506Z,58.30
2018-11-05T09:56:46.493Z,58.40
2018-11-05T09:57:46.476Z,58.20
2018-11-05T09:58:46.476Z,58.40
2018-11-05T09:59:46.456Z,58.11
2018-11-05T10:01:07.456Z,58.40
2018-11-05T10:01:46.440Z,58.30
2018-11-05T10:02:46.446Z,58.30
2018-11-05T10:03:46.560Z,58.11
2018-11-05T10:04:46.596Z,58.20
2018-11-05T10:05:46.403Z,58.30
2018-11-05T10:07:07.399Z,58.30
2018-11-05T10:07:46.401Z,58.20
2018-11-05T10:08:46.377Z,58.30
2018-11-05T10:09:46.442Z,58.11
2018-11-05T10:10:46.359Z,58.40
2018-11-05T10:11:46.356Z,58.20
2018-11-05T10:13:07.347Z,58.20
2018-11-05T10:13:46.332Z,58.01
2018-11-05T10:14:46.322Z,58.20
2018-11-05T10:15:46.320Z,58.20
2018-11-05T10:16:46.309Z,58.20
2018-11-05T10:17:46.305Z,58.01
2018-11-05T10:19:07.302Z,58.01
2018-11-05T10:19:46.277Z,58.30
2018-11-05T10:20:46.270Z,58.40
2018-11-05T10:21:46.259Z,58.30
2018-11-05T10:22:46.249Z,58.20
2018-11-05T10:23:46.247Z,58.20
2018-11-05T10:25:07.390Z,58.30
2018-11-05T10:25:46.227Z,58.11
2018-11-05T10:26:46.215Z,58.40
2018-11-05T10:27:46.206Z,58.30
2018-11-05T10:28:46.203Z,58.40
2018-11-05T10:29:46.189Z,58.40
2018-11-05T10:31:07.192Z,58.30
2018-11-05T10:31:46.170Z,58.40
2018-11-05T10:32:46.161Z,58.30
2018-11-05T10:33:46.172Z,58.30
2018-11-05T10:34:46.149Z,58.20
2018-11-05T10:35:46.137Z,58.30
2018-11-05T10:37:07.130Z,58.49
2018-11-05T10:37:46.111Z,58.30
2018-11-05T10:38:46.105Z,58.40
2018-11-05T10:39:46.110Z,58.40
2018-11-05T10:40:46.091Z,58.40
2018-11-05T10:41:46.077Z,58.20
2018-11-05T10:43:07.078Z,58.40
2018-11-05T10:43:46.062Z,58.20
2018-11-05T10:44:46.053Z,58.20
2018-11-05T10:45:46.042Z,58.49
2018-11-05T10:46:46.037Z,58.49
2018-11-05T10:47:46.031Z,58.40
2018-11-05T10:49:07.029Z,58.40
2018-11-05T10:49:46.006Z,58.30
2018-11-05T10:50:46.042Z,58.40
2018-11-05T10:51:46.003Z,58.49
2018-11-05T10:52:45.980Z,58.20
2018-11-05T10:53:45.972Z,58.40
2018-11-05T10:55:06.966Z,58.49
2018-11-05T10:55:45.952Z,58.40
2018-11-05T10:56:45.953Z,58.30
2018-11-05T10:57:45.940Z,58.49
2018-11-05T10:58:45.931Z,58.30
2018-11-05T10:59:45.916Z,58.30
2018-11-05T11:01:06.912Z,58.20
2018-11-05T11:01:45.906Z,58.20
2018-11-05T11:02:45.889Z,58.30
2018-11-05T11:03:45.944Z,58.40
2018-11-05T11:04:45.869Z,58.40
2018-11-05T11:05:45.861Z,58.40
2018-11-05T11:07:06.866Z,58.40
2018-11-05T11:07:45.844Z,58.69
2018-11-05T11:08:45.837Z,58.30
2018-11-05T11:09:45.948Z,58.49
2018-11-05T11:10:45.819Z,58.40
2018-11-05T11:11:45.812Z,58.59
2018-11-05T11:13:06.808Z,58.40
2018-11-05T11:13:45.789Z,58.30
2018-11-05T11:14:45.782Z,58.40
2018-11-05T11:15:45.782Z,58.30
2018-11-05T11:16:45.772Z,58.20
2018-11-05T11:17:45.757Z,58.20
2018-11-05T11:19:06.751Z,58.49
2018-11-05T11:19:45.735Z,58.40
2018-11-05T11:20:45.724Z,58.59
2018-11-05T11:21:45.725Z,58.40
2018-11-05T11:22:45.713Z,58.30
2018-11-05T11:23:45.716Z,58.40
2018-11-05T11:25:06.703Z,58.40
2018-11-05T11:25:45.680Z,58.40
2018-11-05T11:26:45.669Z,58.30
2018-11-05T11:27:45.788Z,58.30
2018-11-05T11:28:45.801Z,58.40
2018-11-05T11:29:45.655Z,58.40
2018-11-05T11:31:06.641Z,58.40
2018-11-05T11:31:45.628Z,58.20
2018-11-05T11:32:45.619Z,58.30
2018-11-05T11:33:45.614Z,58.40
2018-11-05T11:34:45.604Z,58.49
2018-11-05T11:35:45.604Z,58.30
2018-11-05T11:37:06.595Z,58.30
2018-11-05T11:37:45.578Z,58.40
2018-11-05T11:38:45.567Z,58.40
2018-11-05T11:39:45.560Z,58.30
2018-11-05T11:40:45.552Z,58.20
2018-11-05T11:41:45.540Z,58.20
2018-11-05T11:43:06.535Z,58.40
2018-11-05T11:43:45.519Z,58.40
2018-11-05T11:44:45.561Z,58.59
2018-11-05T11:45:45.500Z,58.40
2018-11-05T11:46:45.493Z,58.40
2018-11-05T11:47:45.488Z,58.30
2018-11-05T11:49:06.481Z,58.20
2018-11-05T11:49:45.465Z,58.49
2018-11-05T11:50:45.457Z,58.69
2018-11-05T11:51:45.448Z,58.40
2018-11-05T11:52:45.555Z,58.49
2018-11-05T11:53:45.433Z,58.40
2018-11-05T11:55:06.433Z,58.40
2018-11-05T11:55:45.413Z,58.20
2018-11-05T11:56:45.401Z,58.49
2018-11-05T11:57:45.447Z,58.30
2018-11-05T11:58:45.382Z,58.30
2018-11-05T11:59:45.420Z,58.69
2018-11-05T12:01:06.376Z,58.59
2018-11-05T12:01:45.359Z,58.49
2018-11-05T12:02:45.354Z,58.59
2018-11-05T12:03:45.344Z,58.20
2018-11-05T12:04:45.337Z,58.40
2018-11-05T12:05:45.325Z,58.30
2018-11-05T12:07:06.316Z,58.40
2018-11-05T12:07:45.305Z,58.30
2018-11-05T12:08:45.294Z,58.30
2018-11-05T12:09:45.282Z,58.30
2018-11-05T12:10:45.275Z,58.30
2018-11-05T12:11:45.262Z,58.30
2018-11-05T12:13:06.267Z,58.30
2018-11-05T12:13:45.249Z,58.20
2018-11-05T12:14:45.473Z,58.40
2018-11-05T12:15:45.229Z,58.40
2018-11-05T12:16:45.225Z,58.30
2018-11-05T12:17:45.212Z,58.40
2018-11-05T12:19:06.217Z,58.59
2018-11-05T12:19:45.197Z,58.30
2018-11-05T12:20:45.190Z,58.59
2018-11-05T12:21:45.176Z,58.69
2018-11-05T12:22:45.173Z,58.30
2018-11-05T12:23:45.159Z,58.49
2018-11-05T12:25:06.238Z,58.49
2018-11-05T12:25:45.146Z,58.30
2018-11-05T12:26:45.202Z,58.49
2018-11-05T12:27:45.124Z,58.49
2018-11-05T12:28:45.114Z,58.49
2018-11-05T12:29:45.105Z,58.30
2018-11-05T12:31:06.097Z,58.20
2018-11-05T12:31:45.085Z,58.40
2018-11-05T12:32:45.077Z,58.40
2018-11-05T12:33:45.082Z,58.49
2018-11-05T12:34:45.068Z,58.40
2018-11-05T12:35:45.055Z,58.40
2018-11-05T12:37:06.045Z,58.49
2018-11-05T12:37:45.031Z,58.20
2018-11-05T12:38:45.040Z,58.59
2018-11-05T12:39:45.017Z,58.40
2018-11-05T12:40:45.004Z,58.59
2018-11-05T12:41:44.993Z,58.20
2018-11-05T12:43:05.992Z,58.59
2018-11-05T12:43:44.976Z,58.20
2018-11-05T12:44:45.041Z,58.59
2018-11-05T12:45:44.962Z,58.40
2018-11-05T12:46:44.953Z,58.49
2018-11-05T12:47:44.939Z,58.49
2018-11-05T12:49:05.954Z,58.30
2018-11-05T12:49:44.933Z,58.30
2018-11-05T12:50:45.002Z,58.40
2018-11-05T12:51:44.905Z,58.30
2018-11-05T12:52:44.897Z,58.40